createdAt,value
2022-08-20T00:02:42.773Z,5.28
2022-08-20T00:07:45.010Z,6.10
2022-08-20T00:12:48.819Z,5.57
2022-08-20T00:17:51.664Z,6.43
2022-08-20T00:22:54.147Z,5.70
2022-08-20T00:27:57.676Z,5.90
2022-08-20T00:33:03.012Z,6.43
2022-08-20T00:38:05.287Z,6.15
2022-08-20T00:43:24.571Z,6.13
2022-08-20T00:48:32.118Z,6.38
2022-08-20T00:53:35.127Z,6.55
2022-08-20T00:58:40.035Z,7.00
2022-08-20T01:03:42.469Z,6.72
2022-08-20T01:08:45.109Z,6.70
2022-08-20T01:13:47.300Z,6.32
2022-08-20T01:18:50.556Z,7.30
2022-08-20T01:24:08.449Z,6.32
2022-08-20T01:29:15.089Z,6.88
2022-08-20T01:34:19.805Z,7.07
2022-08-20T01:39:26.110Z,7.45
2022-08-20T01:44:31.098Z,7.47
2022-08-20T01:49:35.207Z,7.20
2022-08-20T01:54:37.268Z,7.40
2022-08-20T01:59:40.056Z,7.87
2022-08-20T02:04:42.456Z,8.70
2022-08-20T02:09:45.361Z,7.10
2022-08-20T02:14:52.453Z,7.97
2022-08-20T02:20:00.615Z,6.78
2022-08-20T02:25:04.652Z,6.97
2022-08-20T02:30:19.278Z,7.55
2022-08-20T02:35:31.703Z,6.38
2022-08-20T02:40:36.044Z,6.63
2022-08-20T02:45:43.707Z,7.00
2022-08-20T02:50:45.712Z,6.20
2022-08-20T02:55:47.790Z,6.80
2022-08-20T03:00:50.365Z,6.93
2022-08-20T03:05:55.573Z,7.43
2022-08-20T03:10:57.868Z,7.78
2022-08-20T03:16:02.489Z,7.50
2022-08-20T03:21:06.066Z,7.53
2022-08-20T03:26:10.348Z,7.38
2022-08-20T03:31:14.768Z,7.45
2022-08-20T03:36:20.820Z,7.57
2022-08-20T03:41:32.312Z,7.43
2022-08-20T03:46:34.981Z,7.25
2022-08-20T03:51:57.108Z,8.25
2022-08-20T03:56:59.233Z,7.47
2022-08-20T04:02:01.646Z,7.72
2022-08-20T04:07:12.210Z,7.82
2022-08-20T04:12:14.194Z,7.65
2022-08-20T04:17:18.491Z,7.70
2022-08-20T04:22:20.997Z,8.27
2022-08-20T04:27:22.957Z,8.40
2022-08-20T04:32:24.929Z,7.50
2022-08-20T04:37:26.929Z,7.72
2022-08-20T04:42:29.228Z,7.18
2022-08-20T04:47:34.609Z,7.20
2022-08-20T04:52:37.861Z,7.45
2022-08-20T04:57:39.804Z,7.95
2022-08-20T05:02:42.193Z,7.63
2022-08-20T05:07:48.428Z,7.23
2022-08-20T05:12:56.510Z,8.07
2022-08-20T05:18:04.751Z,7.72
2022-08-20T05:23:09.529Z,8.07
2022-08-20T05:28:17.449Z,8.30
2022-08-20T05:33:21.537Z,7.65
2022-08-20T05:38:26.633Z,8.40
2022-08-20T05:43:28.628Z,9.70
2022-08-20T05:48:30.900Z,11.80
2022-08-20T05:53:33.038Z,10.45
2022-08-20T05:58:34.984Z,9.47
2022-08-20T06:03:55.475Z,9.50
2022-08-20T06:08:57.669Z,10.20
2022-08-20T06:14:00.009Z,8.45
2022-08-20T06:19:02.700Z,8.38
2022-08-20T06:24:05.785Z,8.27
2022-08-20T06:29:07.834Z,8.10
2022-08-20T06:34:09.826Z,9.63
2022-08-20T06:39:11.847Z,8.37
2022-08-20T06:44:14.788Z,8.40
2022-08-20T06:49:16.760Z,7.55
2022-08-20T06:54:18.738Z,7.67
2022-08-20T06:59:21.294Z,8.37
